createdAt,value
2019-05-29T00:01:27.498Z,101525.81
2019-05-29T00:04:00.331Z,101524.00
2019-05-29T00:06:30.095Z,101526.89
2019-05-29T00:08:59.922Z,101527.98
2019-05-29T00:11:29.606Z,101527.93
2019-05-29T00:14:00.646Z,101525.83
2019-05-29T00:16:30.420Z,101526.77
2019-05-29T00:19:00.434Z,101521.23
2019-05-29T00:21:36.119Z,101523.86
2019-05-29T00:24:06.681Z,101522.95
2019-05-29T00:26:38.628Z,101520.84
2019-05-29T00:29:11.703Z,101519.50
2019-05-29T00:31:41.606Z,101519.61
2019-05-29T00:34:13.101Z,101525.15
2019-05-29T00:36:43.836Z,101523.45
2019-05-29T00:39:14.746Z,101520.91
2019-05-29T00:41:45.278Z,101524.56
2019-05-29T00:44:15.407Z,101524.71
2019-05-29T00:46:45.148Z,101519.13
2019-05-29T00:49:15.987Z,101522.43
2019-05-29T00:51:45.721Z,101530.39
2019-05-29T00:54:16.522Z,101525.77
2019-05-29T00:56:46.349Z,101525.18
2019-05-29T00:59:17.306Z,101521.29
2019-05-29T01:01:47.622Z,101520.34
2019-05-29T01:04:17.883Z,101525.64
2019-05-29T01:06:48.015Z,101520.02
2019-05-29T01:09:18.612Z,101521.66
2019-05-29T01:11:48.474Z,101520.22
2019-05-29T01:14:19.269Z,101518.17
2019-05-29T01:16:49.062Z,101519.62
2019-05-29T01:19:27.683Z,101520.12
2019-05-29T01:21:58.117Z,101514.39
2019-05-29T01:24:27.959Z,101514.65
2019-05-29T01:26:57.602Z,101518.48
2019-05-29T01:29:29.976Z,101518.13
2019-05-29T01:31:59.693Z,101510.16
2019-05-29T01:34:29.397Z,101512.36
2019-05-29T01:36:59.063Z,101509.11
2019-05-29T01:39:28.798Z,101504.69
2019-05-29T01:41:58.569Z,101503.73
2019-05-29T01:44:28.255Z,101505.58
2019-05-29T01:47:00.898Z,101500.20
2019-05-29T01:49:33.051Z,101501.55
2019-05-29T01:52:02.681Z,101493.61
2019-05-29T01:54:32.455Z,101494.11
2019-05-29T01:57:02.278Z,101495.59
2019-05-29T01:59:32.225Z,101493.41
2019-05-29T02:02:03.564Z,101492.67
2019-05-29T02:04:35.952Z,101495.36
2019-05-29T02:07:04.613Z,101496.50
2019-05-29T02:09:37.535Z,101497.34
2019-05-29T02:12:08.017Z,101493.21
2019-05-29T02:14:37.941Z,101490.17
2019-05-29T02:17:09.870Z,101490.17
2019-05-29T02:19:39.658Z,101490.17
2019-05-29T02:22:09.768Z,101483.30
2019-05-29T02:24:39.553Z,101478.41
2019-05-29T02:27:09.288Z,101488.04
2019-05-29T02:29:42.018Z,101493.42
2019-05-29T02:32:11.635Z,101483.50
2019-05-29T02:34:41.372Z,101479.47
2019-05-29T02:37:15.689Z,101478.22
2019-05-29T02:39:45.652Z,101479.21
2019-05-29T02:42:20.864Z,101475.91
2019-05-29T02:44:50.841Z,101477.95
2019-05-29T02:47:23.667Z,101479.30
2019-05-29T02:49:53.486Z,101468.54
2019-05-29T02:52:24.263Z,101475.97
2019-05-29T02:54:54.023Z,101472.31
2019-05-29T02:57:24.645Z,101479.75
2019-05-29T02:59:54.513Z,101477.55
2019-05-29T03:02:25.652Z,101474.13
2019-05-29T03:04:55.320Z,101474.52
2019-05-29T03:07:26.332Z,101467.28
2019-05-29T03:09:56.597Z,101458.97
2019-05-29T03:12:27.062Z,101464.85
2019-05-29T03:14:57.172Z,101465.35
2019-05-29T03:17:27.892Z,101460.81
2019-05-29T03:19:57.997Z,101455.08
2019-05-29T03:22:28.788Z,101448.26
2019-05-29T03:24:58.661Z,101442.88
2019-05-29T03:27:29.877Z,101446.21
2019-05-29T03:29:59.504Z,101451.59
2019-05-29T03:32:34.524Z,101455.25
2019-05-29T03:35:00.746Z,101457.88
2019-05-29T03:37:32.574Z,101454.45
2019-05-29T03:40:02.760Z,101456.78
2019-05-29T03:42:38.889Z,101455.05
2019-05-29T03:45:08.503Z,101448.59
2019-05-29T03:47:38.292Z,101446.04
2019-05-29T03:50:08.595Z,101445.30
2019-05-29T03:52:41.257Z,101444.74
2019-05-29T03:55:11.094Z,101444.30
2019-05-29T03:57:40.857Z,101444.20
2019-05-29T04:00:11.990Z,101447.98
2019-05-29T04:02:41.740Z,101445.94
2019-05-29T04:05:11.607Z,101447.78
2019-05-29T04:07:42.984Z,101441.91
2019-05-29T04:10:12.709Z,101445.59
2019-05-29T04:12:42.346Z,101442.05
2019-05-29T04:15:15.494Z,101441.05
2019-05-29T04:17:45.976Z,101437.88
2019-05-29T04:20:15.558Z,101435.77
2019-05-29T04:22:46.041Z,101431.73
2019-05-29T04:25:15.735Z,101440.16
2019-05-29T04:27:48.786Z,101431.35
2019-05-29T04:30:19.599Z,101431.73
2019-05-29T04:32:49.361Z,101428.20
2019-05-29T04:35:18.965Z,101424.02
2019-05-29T04:37:51.431Z,101420.34
2019-05-29T04:40:21.059Z,101420.58
2019-05-29T04:42:50.702Z,101412.97
2019-05-29T04:45:20.386Z,101411.02
2019-05-29T04:47:50.019Z,101405.48
2019-05-29T04:50:19.607Z,101406.93
2019-05-29T04:52:50.931Z,101396.02
2019-05-29T04:55:20.590Z,101384.16
2019-05-29T04:57:51.065Z,101380.52
2019-05-29T05:00:23.928Z,101383.21
2019-05-29T05:02:53.660Z,101380.78
2019-05-29T05:05:23.238Z,101376.48
2019-05-29T05:07:52.779Z,101382.45
2019-05-29T05:10:41.339Z,101385.99
2019-05-29T05:13:11.019Z,101385.47
2019-05-29T05:15:40.714Z,101382.37
2019-05-29T05:18:10.378Z,101378.42
2019-05-29T05:20:40.467Z,101385.59
2019-05-29T05:23:10.236Z,101387.53
2019-05-29T05:25:41.044Z,101396.66
2019-05-29T05:28:11.170Z,101384.42
2019-05-29T05:30:40.945Z,101382.78
2019-05-29T05:33:10.583Z,101389.52
2019-05-29T05:35:40.995Z,101376.14
2019-05-29T05:38:10.630Z,101372.80
2019-05-29T05:40:43.077Z,101374.94
2019-05-29T05:43:23.700Z,101377.89
2019-05-29T05:45:42.726Z,101381.73
2019-05-29T05:48:12.231Z,101383.42
2019-05-29T05:50:41.844Z,101379.16
2019-05-29T05:53:11.363Z,101375.47
2019-05-29T05:55:42.815Z,101365.98
2019-05-29T05:58:12.266Z,101370.64
2019-05-29T06:00:42.153Z,101376.37
2019-05-29T06:03:15.791Z,101373.34
2019-05-29T06:05:45.799Z,101377.02
2019-05-29T06:08:15.544Z,101371.48
2019-05-29T06:10:45.103Z,101367.95
2019-05-29T06:13:14.964Z,101364.77
2019-05-29T06:15:44.718Z,101359.29
2019-05-29T06:18:21.250Z,101360.17
2019-05-29T06:20:45.606Z,101351.10
2019-05-29T06:23:15.376Z,101345.83
2019-05-29T06:25:44.996Z,101352.80
2019-05-29T06:28:14.688Z,101347.15
2019-05-29T06:30:45.121Z,101344.52
2019-05-29T06:33:15.307Z,101332.13
2019-05-29T06:35:44.923Z,101338.94
2019-05-29T06:38:14.399Z,101340.14
2019-05-29T06:40:44.887Z,101341.14
2019-05-29T06:43:25.880Z,101337.59
2019-05-29T06:45:56.263Z,101334.17
2019-05-29T06:48:41.688Z,101327.74
2019-05-29T06:50:59.192Z,101316.33
2019-05-29T06:53:28.672Z,101314.72
2019-05-29T06:55:59.365Z,101312.72
2019-05-29T06:58:29.297Z,101314.64
2019-05-29T07:00:59.106Z,101312.03
2019-05-29T07:03:28.503Z,101300.53
2019-05-29T07:06:00.418Z,101307.08
2019-05-29T07:08:38.657Z,101296.23
2019-05-29T07:11:00.982Z,101305.73
2019-05-29T07:13:34.681Z,101311.61
2019-05-29T07:16:01.842Z,101310.61
2019-05-29T07:18:31.288Z,101300.91
2019-05-29T07:21:00.709Z,101305.65
2019-05-29T07:23:30.103Z,101305.30
2019-05-29T07:25:59.588Z,101308.34
2019-05-29T07:28:29.076Z,101312.73
2019-05-29T07:31:02.856Z,101309.92
2019-05-29T07:33:29.629Z,101308.92
2019-05-29T07:35:59.049Z,101304.87
2019-05-29T07:38:28.547Z,101302.53
2019-05-29T07:40:57.967Z,101296.98
2019-05-29T07:43:27.491Z,101296.91
2019-05-29T07:45:57.031Z,101295.63
2019-05-29T07:48:26.464Z,101289.81
2019-05-29T07:51:06.591Z,101284.14
2019-05-29T07:53:29.363Z,101289.03
2019-05-29T07:55:58.874Z,101285.91
2019-05-29T07:58:28.327Z,101290.52
2019-05-29T08:01:12.300Z,101286.34
2019-05-29T08:03:32.115Z,101287.42
2019-05-29T08:06:02.427Z,101288.27
2019-05-29T08:08:36.775Z,101291.16
2019-05-29T08:11:06.178Z,101289.65
2019-05-29T08:13:41.863Z,101289.20
2019-05-29T08:16:11.631Z,101292.28
2019-05-29T08:18:53.330Z,101289.34
2019-05-29T08:21:22.987Z,101292.79
2019-05-29T08:23:52.454Z,101291.84
2019-05-29T08:26:21.993Z,101293.76
2019-05-29T08:28:51.419Z,101287.23
2019-05-29T08:31:21.249Z,101270.95
2019-05-29T08:33:51.235Z,101270.19
2019-05-29T08:36:23.515Z,101282.61
2019-05-29T08:38:52.898Z,101276.95
2019-05-29T08:41:22.373Z,101269.75
2019-05-29T08:43:52.786Z,101270.15
2019-05-29T08:46:22.378Z,101267.29
2019-05-29T08:48:52.271Z,101263.11
2019-05-29T08:51:21.973Z,101266.84
2019-05-29T08:53:53.403Z,101262.84
2019-05-29T08:56:22.836Z,101259.19
2019-05-29T08:58:55.293Z,101250.26
2019-05-29T09:01:24.792Z,101252.59
2019-05-29T09:03:54.220Z,101248.80
2019-05-29T09:06:23.631Z,101248.89
2019-05-29T09:08:54.876Z,101248.59
2019-05-29T09:11:24.257Z,101237.13
2019-05-29T09:13:53.659Z,101240.33
2019-05-29T09:16:23.264Z,101244.13
2019-05-29T09:18:52.732Z,101246.36
2019-05-29T09:21:22.895Z,101253.32
2019-05-29T09:23:53.253Z,101251.84
2019-05-29T09:26:25.489Z,101243.80
2019-05-29T09:29:02.463Z,101248.23
2019-05-29T09:31:31.879Z,101250.45
2019-05-29T09:34:01.461Z,101249.81
2019-05-29T09:36:30.824Z,101243.45
2019-05-29T09:39:00.314Z,101241.62
2019-05-29T09:41:29.672Z,101251.83
2019-05-29T09:44:05.672Z,101251.69
2019-05-29T09:46:37.024Z,101251.20
2019-05-29T09:49:06.466Z,101248.89
2019-05-29T09:51:35.856Z,101239.25
2019-05-29T09:54:05.340Z,101253.98
2019-05-29T09:56:34.841Z,101255.66
2019-05-29T09:59:04.403Z,101247.00
2019-05-29T10:01:33.747Z,101246.33
2019-05-29T10:04:05.943Z,101245.28
2019-05-29T10:06:34.362Z,101246.81
2019-05-29T10:09:04.954Z,101247.83
2019-05-29T10:11:34.413Z,101251.41
2019-05-29T10:14:05.073Z,101239.06
2019-05-29T10:16:34.520Z,101247.88
2019-05-29T10:19:04.972Z,101240.77
2019-05-29T10:21:40.498Z,101241.98
2019-05-29T10:24:06.248Z,101245.22
2019-05-29T10:26:35.722Z,101249.28
2019-05-29T10:29:09.116Z,101246.55
2019-05-29T10:31:36.647Z,101252.44
2019-05-29T10:34:05.983Z,101249.38
2019-05-29T10:36:35.282Z,101258.84
2019-05-29T10:39:06.545Z,101259.69
2019-05-29T10:41:35.940Z,101263.61
2019-05-29T10:44:05.504Z,101253.77
2019-05-29T10:46:35.035Z,101264.92
2019-05-29T10:49:05.454Z,101263.38
2019-05-29T10:52:00.380Z,101267.23
2019-05-29T10:54:17.497Z,101263.83
2019-05-29T10:56:50.984Z,101270.30
2019-05-29T10:59:21.099Z,101273.41
2019-05-29T11:01:51.298Z,101260.15
2019-05-29T11:04:22.522Z,101265.95
2019-05-29T11:06:52.641Z,101268.47
2019-05-29T11:09:24.895Z,101270.97
2019-05-29T11:11:57.819Z,101274.56
2019-05-29T11:14:36.467Z,101278.82
2019-05-29T11:17:08.361Z,101275.99
2019-05-29T11:19:38.269Z,101270.93
2019-05-29T11:22:25.286Z,101280.39
2019-05-29T11:24:39.344Z,101275.70
2019-05-29T11:27:34.250Z,101278.27
2019-05-29T11:30:08.489Z,101287.91
2019-05-29T11:32:37.959Z,101282.79
2019-05-29T11:35:08.522Z,101287.09
2019-05-29T11:37:38.172Z,101286.45
2019-05-29T11:40:08.794Z,101287.30
2019-05-29T11:42:38.254Z,101283.42
2019-05-29T11:45:09.935Z,101286.84
2019-05-29T11:47:41.891Z,101280.42
2019-05-29T11:50:19.072Z,101281.69
2019-05-29T11:52:44.936Z,101287.72
2019-05-29T11:55:16.995Z,101286.20
2019-05-29T11:57:46.348Z,101284.00
2019-05-29T12:00:20.392Z,101285.36
2019-05-29T12:02:47.524Z,101280.72
2019-05-29T12:05:23.285Z,101280.63
2019-05-29T12:07:53.498Z,101283.89
2019-05-29T12:10:23.344Z,101288.15
2019-05-29T12:12:53.392Z,101295.08
2019-05-29T12:15:24.098Z,101298.28
2019-05-29T12:17:57.898Z,101292.03
2019-05-29T12:20:28.003Z,101302.17
2019-05-29T12:23:22.822Z,101299.47
2019-05-29T12:25:36.490Z,101306.52
2019-05-29T12:29:32.975Z,101306.69
2019-05-29T12:31:25.094Z,101296.77
2019-05-29T12:34:18.903Z,101293.73
2019-05-29T12:36:55.600Z,101294.98
2019-05-29T12:39:45.903Z,101297.86
2019-05-29T12:42:37.651Z,101299.32
2019-05-29T12:45:45.954Z,101293.64
2019-05-29T12:48:46.002Z,101298.72
2019-05-29T12:51:22.630Z,101303.95
2019-05-29T12:53:55.867Z,101297.87
2019-05-29T12:56:25.372Z,101312.23
2019-05-29T12:58:56.054Z,101300.71
2019-05-29T13:01:48.761Z,101302.91
2019-05-29T13:04:13.428Z,101310.20
2019-05-29T13:06:46.922Z,101308.82
2019-05-29T13:09:16.596Z,101308.14
2019-05-29T13:11:46.161Z,101302.23
2019-05-29T13:14:23.737Z,101310.55
2019-05-29T13:16:54.674Z,101304.30
2019-05-29T13:19:28.241Z,101318.05
2019-05-29T13:21:59.856Z,101316.70
2019-05-29T13:24:31.670Z,101308.79
2019-05-29T13:27:07.299Z,101311.83
2019-05-29T13:29:37.929Z,101296.05
2019-05-29T13:35:50.630Z,101295.74
2019-05-29T13:38:21.256Z,101294.76
2019-05-29T13:40:51.126Z,101290.77
2019-05-29T13:43:24.400Z,101296.52
2019-05-29T13:45:54.341Z,101302.26
2019-05-29T13:48:26.788Z,101296.17
2019-05-29T13:50:57.577Z,101313.52
2019-05-29T13:53:31.228Z,101300.44
2019-05-29T13:56:03.913Z,101297.20
2019-05-29T13:58:37.685Z,101297.53
2019-05-29T14:01:10.128Z,101296.99
2019-05-29T14:03:41.082Z,101296.92
2019-05-29T14:06:14.397Z,101293.58
2019-05-29T14:08:44.559Z,101297.26
2019-05-29T14:11:16.134Z,101298.27
2019-05-29T14:13:46.011Z,101293.71
2019-05-29T14:16:25.969Z,101287.25
2019-05-29T14:18:55.697Z,101301.78
2019-05-29T14:21:26.782Z,101292.22
2019-05-29T14:23:58.287Z,101297.56
2019-05-29T14:26:45.646Z,101304.99
2019-05-29T14:29:19.525Z,101307.53
2019-05-29T14:31:48.931Z,101311.37
2019-05-29T14:34:22.410Z,101301.87
2019-05-29T14:36:51.967Z,101302.92
2019-05-29T14:39:21.609Z,101306.09
2019-05-29T14:41:54.561Z,101303.91
2019-05-29T14:44:24.150Z,101316.40
2019-05-29T14:46:54.849Z,101310.83
2019-05-29T14:49:28.196Z,101311.67
2019-05-29T14:51:58.331Z,101313.73
2019-05-29T14:54:41.426Z,101311.04
2019-05-29T14:56:59.495Z,101305.63
2019-05-29T14:59:32.208Z,101305.50
2019-05-29T15:02:06.179Z,101313.10
2019-05-29T15:04:35.353Z,101311.45
2019-05-29T15:07:05.741Z,101313.44
2019-05-29T15:09:35.361Z,101316.95
2019-05-29T15:12:05.983Z,101315.77
2019-05-29T15:14:35.635Z,101328.98
2019-05-29T15:17:07.074Z,101330.84
2019-05-29T15:19:39.300Z,101332.66
2019-05-29T15:22:09.470Z,101311.15
2019-05-29T15:24:56.211Z,101313.92
2019-05-29T15:27:14.397Z,101319.16
2019-05-29T15:29:57.513Z,101314.94
2019-05-29T15:32:33.442Z,101322.84
2019-05-29T15:35:03.171Z,101315.82
2019-05-29T15:37:35.008Z,101311.90
2019-05-29T15:40:06.627Z,101321.23
2019-05-29T15:42:54.516Z,101326.41
2019-05-29T15:45:24.393Z,101324.06
2019-05-29T15:47:54.055Z,101335.26
2019-05-29T15:50:25.925Z,101326.30
2019-05-29T15:52:56.290Z,101320.52
2019-05-29T15:55:34.918Z,101314.13
2019-05-29T15:58:04.947Z,101334.05
2019-05-29T16:00:39.165Z,101321.94
2019-05-29T16:03:09.627Z,101317.58
2019-05-29T16:05:41.694Z,101324.41
2019-05-29T16:08:14.075Z,101322.20
2019-05-29T16:10:43.939Z,101325.42
2019-05-29T16:13:19.448Z,101328.97
2019-05-29T16:15:56.777Z,101330.32
2019-05-29T16:18:29.853Z,101327.38
2019-05-29T16:20:59.466Z,101329.00
2019-05-29T16:23:35.650Z,101327.48
2019-05-29T16:26:00.555Z,101328.59
2019-05-29T16:28:33.895Z,101319.63
2019-05-29T16:31:08.215Z,101330.78
2019-05-29T16:33:37.853Z,101335.98
2019-05-29T16:36:07.581Z,101330.38
2019-05-29T16:38:37.089Z,101335.58
2019-05-29T16:41:06.772Z,101341.56
2019-05-29T16:43:36.264Z,101346.13
2019-05-29T16:46:05.965Z,101341.35
2019-05-29T16:48:35.705Z,101339.63
2019-05-29T16:51:05.334Z,101354.77
2019-05-29T16:53:41.355Z,101351.36
2019-05-29T16:56:12.722Z,101354.06
2019-05-29T16:58:43.570Z,101359.00
2019-05-29T17:01:15.259Z,101350.38
2019-05-29T17:03:45.553Z,101360.73
2019-05-29T17:06:16.230Z,101359.44
2019-05-29T17:08:46.951Z,101352.45
2019-05-29T17:11:25.065Z,101358.20
2019-05-29T17:13:54.699Z,101360.89
2019-05-29T17:16:24.819Z,101354.55
2019-05-29T17:18:59.868Z,101357.72
2019-05-29T17:21:30.741Z,101353.54
2019-05-29T17:24:01.572Z,101350.80
2019-05-29T17:26:31.101Z,101356.36
2019-05-29T17:29:00.638Z,101347.42
2019-05-29T17:31:30.532Z,101352.37
2019-05-29T17:34:00.313Z,101351.86
2019-05-29T17:36:29.843Z,101364.02
2019-05-29T17:38:59.344Z,101358.10
2019-05-29T17:41:28.940Z,101367.57
2019-05-29T17:43:58.719Z,101378.66
2019-05-29T17:46:29.489Z,101383.22
2019-05-29T17:48:59.516Z,101384.27
2019-05-29T17:51:33.969Z,101374.61
2019-05-29T17:54:05.561Z,101360.49
2019-05-29T17:56:36.900Z,101338.02
2019-05-29T17:59:06.555Z,101357.72
2019-05-29T18:01:39.917Z,101364.81
2019-05-29T18:04:09.503Z,101356.70
2019-05-29T18:06:39.738Z,101358.10
2019-05-29T18:09:09.451Z,101355.26
2019-05-29T18:11:39.569Z,101347.87
2019-05-29T18:14:13.231Z,101359.41
2019-05-29T18:16:43.938Z,101358.56
2019-05-29T18:19:13.939Z,101353.16
2019-05-29T18:21:45.029Z,101359.19
2019-05-29T18:24:14.564Z,101367.30
2019-05-29T18:26:47.249Z,101366.71
2019-05-29T18:29:15.274Z,101370.39
2019-05-29T18:31:45.434Z,101383.09
2019-05-29T18:34:18.774Z,101376.05
2019-05-29T18:36:48.260Z,101374.70
2019-05-29T18:39:22.100Z,101355.40
2019-05-29T18:41:51.837Z,101363.12
2019-05-29T18:44:21.202Z,101360.89
2019-05-29T18:46:50.682Z,101354.64
2019-05-29T18:49:22.173Z,101367.62
2019-05-29T18:51:51.823Z,101375.68
2019-05-29T18:54:24.278Z,101368.59
2019-05-29T18:57:13.783Z,101380.92
2019-05-29T18:59:25.464Z,101377.83
2019-05-29T19:02:05.503Z,101384.23
2019-05-29T19:04:38.873Z,101385.98
2019-05-29T19:07:08.508Z,101385.98
2019-05-29T19:09:39.816Z,101378.55
2019-05-29T19:12:35.687Z,101377.72
2019-05-29T19:15:08.925Z,101379.17
2019-05-29T19:17:51.015Z,101369.22
2019-05-29T19:20:22.542Z,101392.69
2019-05-29T19:22:56.032Z,101377.66
2019-05-29T19:25:33.604Z,101381.03
2019-05-29T19:28:03.632Z,101371.87
2019-05-29T19:30:33.354Z,101390.94
2019-05-29T19:33:06.757Z,101388.34
2019-05-29T19:35:36.417Z,101390.14
2019-05-29T19:38:09.103Z,101390.25
2019-05-29T19:40:39.020Z,101396.89
2019-05-29T19:43:12.419Z,101397.53
2019-05-29T19:45:41.931Z,101407.14
2019-05-29T19:48:12.626Z,101413.05
2019-05-29T19:50:42.283Z,101411.86
2019-05-29T19:53:11.858Z,101417.84
2019-05-29T19:55:42.779Z,101417.84
2019-05-29T19:58:12.429Z,101424.25
2019-05-29T20:00:42.095Z,101431.34
2019-05-29T20:03:14.388Z,101429.98
2019-05-29T20:05:43.978Z,101429.30
2019-05-29T20:08:13.702Z,101429.98
2019-05-29T20:10:43.314Z,101434.36
2019-05-29T20:13:13.259Z,101433.30
2019-05-29T20:15:47.276Z,101438.09
2019-05-29T20:18:18.375Z,101442.14
2019-05-29T20:20:47.934Z,101444.66
2019-05-29T20:23:17.493Z,101445.85
2019-05-29T20:25:47.071Z,101446.86
2019-05-29T20:28:28.728Z,101451.75
2019-05-29T20:31:13.522Z,101454.45
2019-05-29T20:33:46.789Z,101451.81
2019-05-29T20:36:47.007Z,101463.84
2019-05-29T20:39:24.913Z,101450.79
2019-05-29T20:41:54.463Z,101465.07
2019-05-29T20:44:25.980Z,101458.16
2019-05-29T20:47:14.811Z,101471.00
2019-05-29T20:49:48.069Z,101469.81
2019-05-29T20:55:09.009Z,101477.91
2019-05-29T20:58:23.180Z,101481.68
2019-05-29T21:00:38.482Z,101483.38
2019-05-29T21:03:08.650Z,101481.68
2019-05-29T21:05:42.863Z,101481.68
2019-05-29T21:08:13.032Z,101492.51
2019-05-29T21:10:43.606Z,101483.05
2019-05-29T21:13:13.549Z,101490.81
2019-05-29T21:15:46.270Z,101481.08
2019-05-29T21:18:18.193Z,101490.38
2019-05-29T21:20:47.860Z,101492.73
2019-05-29T21:23:17.504Z,101490.59
2019-05-29T21:25:47.178Z,101496.49
2019-05-29T21:28:18.028Z,101497.97
2019-05-29T21:34:02.595Z,101493.86
2019-05-29T21:36:56.508Z,101499.14
2019-05-29T21:39:25.965Z,101500.27
2019-05-29T21:41:55.470Z,101503.81
2019-05-29T21:44:29.217Z,101503.81
2019-05-29T21:47:19.486Z,101505.27
2019-05-29T21:50:43.693Z,101511.73
2019-05-29T21:56:06.055Z,101520.84
2019-05-29T21:59:08.661Z,101512.67
2019-05-29T22:02:12.561Z,101531.58
2019-05-29T22:13:56.863Z,101518.64
2019-05-29T22:16:26.769Z,101513.14
2019-05-29T22:21:49.521Z,101522.09
2019-05-29T22:49:23.589Z,101532.05
2019-05-29T22:52:06.666Z,101528.50
2019-05-29T22:57:24.621Z,101541.56
2019-05-29T23:05:47.272Z,101533.80
2019-05-29T23:11:16.626Z,101536.85
